Time;durP1;ratioP1;P1;durP2;ratioP2;P2;SDS_P1;SDS_P2;PMS_P1;PMS_P2;Temp;Humidity;BMP_temperature;BMP_pressure;BME280_temperature;BME280_humidity;BME280_pressure;Samples;Min_cycle;Max_cycle;Signal;HPM_P1;HPM_P2
2021/12/21 00:00:12;;;;;;;13.60;5.23;;;3.00;99.90;;;;;;5096002;28;20225;-55
2021/12/21 00:02:45;;;;;;;10.53;4.53;;;3.10;99.90;;;;;;5092362;28;20245;-57
2021/12/21 00:05:20;;;;;;;10.20;4.40;;;3.10;99.90;;;;;;5094369;28;20213;-56
2021/12/21 00:07:53;;;;;;;10.60;4.67;;;3.10;99.90;;;;;;5095215;28;20202;-56
2021/12/21 00:10:23;;;;;;;12.13;5.20;;;3.00;99.90;;;;;;5095295;28;20302;-55
2021/12/21 00:13:24;;;;;;;12.03;4.97;;;2.90;99.90;;;;;;5088086;27;20237;-55
2021/12/21 00:23:33;;;;;;;9.37;4.40;;;3.00;99.90;;;;;;5095985;28;20191;-53
2021/12/21 00:26:21;;;;;;;8.57;4.80;;;3.00;99.90;;;;;;5098509;28;20252;-57
2021/12/21 00:28:57;;;;;;;13.70;4.97;;;3.00;99.90;;;;;;5093718;28;20669;-55
2021/12/21 00:31:26;;;;;;;9.70;5.60;;;3.00;99.90;;;;;;5096040;28;20695;-56
2021/12/21 00:33:53;;;;;;;9.87;5.00;;;3.00;99.90;;;;;;5093763;28;20522;-55
2021/12/21 00:36:23;;;;;;;13.63;4.93;;;2.90;99.90;;;;;;5093568;28;20208;-54
2021/12/21 00:38:51;;;;;;;11.40;3.93;;;2.90;99.90;;;;;;5095093;28;20208;-57
2021/12/21 00:41:19;;;;;;;10.40;5.60;;;2.90;99.90;;;;;;5097074;28;20233;-57
2021/12/21 00:43:47;;;;;;;13.07;4.63;;;2.90;99.90;;;;;;5094547;28;20302;-56
2021/12/21 00:46:14;;;;;;;17.17;5.60;;;2.90;99.90;;;;;;5090926;28;20223;-57
2021/12/21 00:48:49;;;;;;;14.70;5.53;;;2.90;99.90;;;;;;5092350;28;20206;-56
2021/12/21 00:51:18;;;;;;;13.77;5.10;;;2.80;99.90;;;;;;5094069;28;20504;-56
2021/12/21 00:53:45;;;;;;;10.70;4.83;;;2.90;99.90;;;;;;5096825;28;20688;-55
2021/12/21 00:56:13;;;;;;;8.73;5.03;;;2.90;99.90;;;;;;5096550;28;20593;-58
2021/12/21 00:58:40;;;;;;;9.50;4.63;;;2.90;99.90;;;;;;5093359;28;20205;-56
2021/12/21 01:01:07;;;;;;;12.40;5.47;;;2.80;99.90;;;;;;5096451;28;20685;-57
2021/12/21 01:03:40;;;;;;;13.27;5.07;;;2.90;99.90;;;;;;5092763;28;20368;-55
2021/12/21 01:06:38;;;;;;;14.33;5.80;;;2.90;99.90;;;;;;5096109;28;20304;-57
2021/12/21 01:09:09;;;;;;;17.43;5.83;;;2.90;99.90;;;;;;5095879;28;20321;-57
2021/12/21 01:11:44;;;;;;;9.70;4.47;;;2.80;99.90;;;;;;5095436;28;20740;-56
2021/12/21 01:17:04;;;;;;;13.27;5.70;;;2.70;99.90;;;;;;5096865;27;20188;-55
2021/12/21 01:19:44;;;;;;;10.67;4.57;;;2.70;99.90;;;;;;5097654;27;20210;-57
2021/12/21 01:22:29;;;;;;;10.70;5.07;;;2.70;99.90;;;;;;5098432;28;20221;-56
2021/12/21 01:35:50;;;;;;;9.93;5.50;;;2.50;99.90;;;;;;5098947;28;20264;-56
2021/12/21 01:38:57;;;;;;;12.13;6.33;;;2.50;99.90;;;;;;5096809;28;20465;-56
2021/12/21 01:41:39;;;;;;;10.83;6.10;;;2.50;99.90;;;;;;5096826;28;20221;-55
2021/12/21 01:44:23;;;;;;;11.43;5.23;;;2.50;99.90;;;;;;5096753;27;20235;-55
2021/12/21 01:49:40;;;;;;;17.93;6.30;;;2.60;99.90;;;;;;5096388;27;20203;-55
2021/12/21 01:52:11;;;;;;;11.27;6.07;;;2.60;99.90;;;;;;5096254;27;20399;-57
2021/12/21 01:54:38;;;;;;;14.97;6.17;;;2.60;99.90;;;;;;5098752;28;20225;-56
2021/12/21 01:57:07;;;;;;;12.97;5.80;;;2.50;99.90;;;;;;5097455;27;20710;-55
2021/12/21 01:59:35;;;;;;;13.93;7.07;;;2.30;99.90;;;;;;5097968;27;20194;-56
2021/12/21 02:02:04;;;;;;;9.53;5.67;;;2.40;99.90;;;;;;5095694;27;20321;-56
2021/12/21 02:04:31;;;;;;;18.43;6.70;;;2.40;99.90;;;;;;5097437;28;20205;-56
2021/12/21 02:06:58;;;;;;;14.53;6.57;;;2.50;99.90;;;;;;5098936;27;20218;-55
2021/12/21 02:09:33;;;;;;;16.63;6.43;;;2.50;99.90;;;;;;5098801;27;20232;-55
2021/12/21 02:11:59;;;;;;;13.27;6.67;;;2.40;99.90;;;;;;5095086;28;20251;-55
2021/12/21 02:14:26;;;;;;;12.87;6.27;;;2.40;99.90;;;;;;5093553;27;20678;-56
2021/12/21 02:17:19;;;;;;;12.37;6.50;;;2.50;99.90;;;;;;5096782;28;20583;-57
2021/12/21 02:22:51;;;;;;;11.07;6.43;;;2.40;99.90;;;;;;5097973;27;20201;-56
2021/12/21 02:27:56;;;;;;;13.07;6.70;;;2.40;99.90;;;;;;5096724;27;20198;-57
2021/12/21 02:30:24;;;;;;;17.27;6.63;;;2.40;99.90;;;;;;5100057;27;20208;-56
2021/12/21 02:32:52;;;;;;;15.53;7.63;;;2.40;99.90;;;;;;5095765;28;20285;-54
2021/12/21 02:35:19;;;;;;;17.10;6.60;;;2.40;99.90;;;;;;5095552;28;20743;-55
2021/12/21 02:37:46;;;;;;;13.13;7.07;;;2.30;99.90;;;;;;5094844;27;20645;-55
2021/12/21 02:40:14;;;;;;;13.90;6.60;;;2.30;99.90;;;;;;5097529;28;20250;-55
2021/12/21 02:42:41;;;;;;;17.33;6.13;;;2.30;99.90;;;;;;5096212;27;20617;-56
2021/12/21 02:45:08;;;;;;;15.47;6.30;;;2.30;99.90;;;;;;5096693;27;20205;-56
2021/12/21 02:47:35;;;;;;;17.60;6.73;;;2.10;99.90;;;;;;5095162;27;20302;-56
2021/12/21 02:50:02;;;;;;;15.53;6.53;;;2.10;99.90;;;;;;5096367;27;20206;-57
2021/12/21 02:52:29;;;;;;;13.27;5.80;;;2.10;99.90;;;;;;5098835;27;20254;-55
2021/12/21 02:54:56;;;;;;;13.10;6.13;;;2.10;99.90;;;;;;5097125;28;20248;-55
2021/12/21 02:57:23;;;;;;;15.67;6.60;;;2.10;99.90;;;;;;5093066;27;20239;-56
2021/12/21 02:59:50;;;;;;;17.83;6.33;;;2.10;99.90;;;;;;5097534;28;20206;-57
2021/12/21 03:02:18;;;;;;;15.20;6.60;;;2.10;99.90;;;;;;5096830;27;20231;-57
2021/12/21 03:04:45;;;;;;;13.13;6.50;;;2.10;99.90;;;;;;5096021;28;20210;-57
2021/12/21 03:10:12;;;;;;;17.57;6.43;;;2.10;99.90;;;;;;5022843;27;20798;-56
2021/12/21 03:15:24;;;;;;;21.93;6.93;;;2.10;99.90;;;;;;5095525;28;20210;-56
2021/12/21 03:17:52;;;;;;;12.33;6.07;;;2.10;99.90;;;;;;5097266;27;20203;-56
2021/12/21 03:20:20;;;;;;;12.47;6.63;;;2.10;99.90;;;;;;5112356;27;20199;-55
2021/12/21 03:22:47;;;;;;;16.13;6.73;;;2.10;99.90;;;;;;5097384;27;20270;-56
2021/12/21 03:25:14;;;;;;;15.97;6.63;;;2.10;99.90;;;;;;5097315;27;21955;-56
2021/12/21 03:27:41;;;;;;;17.10;6.80;;;2.20;99.90;;;;;;5095427;27;20205;-56
2021/12/21 03:30:12;;;;;;;15.87;6.53;;;2.20;99.90;;;;;;5098402;27;20198;-56
2021/12/21 03:32:39;;;;;;;18.20;6.83;;;2.10;99.90;;;;;;5096117;28;20230;-55
2021/12/21 03:35:07;;;;;;;10.87;6.60;;;2.10;99.90;;;;;;5095277;28;20248;-57
2021/12/21 03:37:35;;;;;;;14.37;7.80;;;2.10;99.90;;;;;;5095770;28;20197;-56
2021/12/21 03:40:04;;;;;;;13.60;7.47;;;2.10;99.90;;;;;;5097265;28;20826;-57
2021/12/21 03:42:31;;;;;;;11.60;6.53;;;2.10;99.90;;;;;;5096105;28;20194;-57
2021/12/21 03:44:58;;;;;;;15.13;7.20;;;2.10;99.90;;;;;;5096713;27;20198;-56
2021/12/21 03:47:26;;;;;;;12.17;6.20;;;1.90;99.90;;;;;;5096456;28;20207;-59
2021/12/21 03:49:56;;;;;;;16.93;7.33;;;2.00;99.90;;;;;;5095254;27;20624;-57
2021/12/21 03:52:26;;;;;;;12.13;6.63;;;2.00;99.90;;;;;;5094969;27;20198;-56
2021/12/21 03:54:57;;;;;;;12.47;6.77;;;2.00;99.90;;;;;;5095807;27;20253;-56
2021/12/21 03:57:26;;;;;;;14.63;7.60;;;2.00;99.90;;;;;;5095071;28;20278;-56
2021/12/21 03:59:54;;;;;;;12.53;6.53;;;2.00;99.90;;;;;;5094467;27;20198;-57
2021/12/21 04:02:22;;;;;;;10.57;6.47;;;1.90;99.90;;;;;;5094931;28;20197;-55
2021/12/21 04:04:50;;;;;;;15.20;6.97;;;1.90;99.90;;;;;;5096454;27;20610;-56
2021/12/21 04:07:17;;;;;;;14.90;6.93;;;1.90;99.90;;;;;;5094489;27;20258;-57
2021/12/21 04:09:44;;;;;;;13.20;7.03;;;1.80;99.90;;;;;;5096378;28;20642;-56
2021/12/21 04:12:11;;;;;;;11.93;6.43;;;1.80;99.90;;;;;;5094250;27;20202;-56
2021/12/21 04:14:39;;;;;;;13.17;6.97;;;1.80;99.90;;;;;;5090985;28;20735;-56
2021/12/21 04:17:17;;;;;;;13.60;6.77;;;1.90;99.90;;;;;;5095404;28;20293;-58
2021/12/21 04:19:45;;;;;;;16.87;6.97;;;1.90;99.90;;;;;;5095146;28;20280;-55
2021/12/21 04:22:12;;;;;;;15.00;6.67;;;1.80;99.90;;;;;;5094224;28;20202;-56
2021/12/21 04:24:39;;;;;;;15.30;7.53;;;1.80;99.90;;;;;;5092731;28;20209;-56
2021/12/21 04:27:06;;;;;;;12.77;7.00;;;1.90;99.90;;;;;;5095553;28;20267;-56
2021/12/21 04:29:33;;;;;;;14.10;6.47;;;1.80;99.90;;;;;;5095509;28;20203;-56
2021/12/21 04:32:00;;;;;;;19.13;7.33;;;1.70;99.90;;;;;;5098365;27;20281;-56
2021/12/21 04:34:27;;;;;;;13.93;7.23;;;1.70;99.90;;;;;;5092983;28;20619;-57
2021/12/21 04:36:54;;;;;;;16.97;7.87;;;1.80;99.90;;;;;;5095488;28;20217;-56
2021/12/21 04:39:37;;;;;;;16.33;7.23;;;1.70;99.90;;;;;;5092841;28;20233;-56
2021/12/21 04:42:05;;;;;;;10.63;6.60;;;1.70;99.90;;;;;;5093944;28;20645;-56
2021/12/21 04:44:32;;;;;;;13.63;6.73;;;1.70;99.90;;;;;;5094277;28;20198;-56
2021/12/21 04:46:59;;;;;;;17.43;7.47;;;1.70;99.90;;;;;;5097215;27;20208;-56
2021/12/21 04:49:27;;;;;;;17.40;6.60;;;1.70;99.90;;;;;;5100271;27;20464;-56
2021/12/21 04:51:54;;;;;;;14.03;7.63;;;1.60;99.90;;;;;;5098823;27;20718;-55
2021/12/21 04:54:21;;;;;;;14.63;6.73;;;1.70;99.90;;;;;;5098701;27;20219;-55
2021/12/21 04:56:48;;;;;;;14.63;6.70;;;1.70;99.90;;;;;;5099147;28;20194;-56
2021/12/21 04:59:15;;;;;;;9.80;6.37;;;1.70;99.90;;;;;;5099287;28;20207;-56
2021/12/21 05:01:43;;;;;;;12.83;6.80;;;1.70;99.90;;;;;;5095500;27;20865;-57
2021/12/21 05:04:10;;;;;;;20.70;7.47;;;1.70;99.90;;;;;;5097431;27;20208;-57
2021/12/21 05:06:36;;;;;;;10.63;6.17;;;1.80;99.90;;;;;;5098350;27;20721;-56
2021/12/21 05:09:09;;;;;;;13.90;7.57;;;1.70;99.90;;;;;;5098769;27;20211;-55
2021/12/21 05:11:37;;;;;;;10.33;6.83;;;1.80;99.90;;;;;;5097823;27;20206;-55
2021/12/21 05:14:08;;;;;;;17.73;6.77;;;1.70;99.90;;;;;;5095890;27;20209;-55
2021/12/21 05:16:37;;;;;;;13.77;6.67;;;1.70;99.90;;;;;;5096847;27;20286;-57
2021/12/21 05:19:05;;;;;;;10.83;6.50;;;1.70;99.90;;;;;;5096479;27;20558;-58
2021/12/21 05:21:33;;;;;;;12.83;7.03;;;1.80;99.90;;;;;;5097623;27;20219;-55
2021/12/21 05:24:00;;;;;;;12.47;7.10;;;1.70;99.90;;;;;;5099601;27;20296;-56
2021/12/21 05:26:28;;;;;;;12.00;6.33;;;1.70;99.90;;;;;;5095890;27;20206;-57
2021/12/21 05:28:56;;;;;;;13.80;6.30;;;1.60;99.90;;;;;;5098413;27;20221;-56
2021/12/21 05:31:22;;;;;;;9.87;6.27;;;1.60;99.90;;;;;;5097774;27;20300;-55
2021/12/21 05:33:51;;;;;;;12.23;6.37;;;1.60;99.90;;;;;;5097766;28;20201;-56
2021/12/21 05:36:20;;;;;;;9.50;5.77;;;1.50;99.90;;;;;;5100144;27;20204;-55
2021/12/21 05:38:55;;;;;;;11.23;6.47;;;1.50;99.90;;;;;;5098422;28;20201;-57
2021/12/21 05:41:40;;;;;;;14.63;6.97;;;1.50;99.90;;;;;;5095404;27;20818;-56
2021/12/21 05:44:07;;;;;;;12.77;6.43;;;1.60;99.90;;;;;;5096542;27;20253;-57
2021/12/21 05:46:34;;;;;;;11.90;5.77;;;1.50;99.90;;;;;;5094857;27;20195;-56
2021/12/21 05:49:01;;;;;;;15.10;6.73;;;1.60;99.90;;;;;;5097457;27;20199;-56
2021/12/21 05:51:28;;;;;;;12.87;6.20;;;1.50;99.90;;;;;;5097329;28;20201;-55
2021/12/21 05:53:55;;;;;;;13.50;6.20;;;1.60;99.90;;;;;;5097076;27;20291;-57
2021/12/21 05:56:22;;;;;;;12.90;6.93;;;1.50;99.90;;;;;;5097153;28;20210;-56
2021/12/21 05:58:49;;;;;;;12.63;6.93;;;1.50;99.90;;;;;;5094944;27;20258;-57
2021/12/21 06:01:16;;;;;;;10.70;6.43;;;1.40;99.90;;;;;;5098503;28;20201;-58
2021/12/21 06:03:43;;;;;;;17.33;6.60;;;1.40;99.90;;;;;;5098460;27;20254;-57
2021/12/21 06:06:14;;;;;;;13.73;6.67;;;1.30;99.90;;;;;;5094540;27;20340;-56
2021/12/21 06:08:44;;;;;;;10.17;5.83;;;1.30;99.90;;;;;;5098071;28;20251;-53
2021/12/21 06:11:11;;;;;;;11.80;6.47;;;1.30;99.90;;;;;;5095624;28;20701;-56
2021/12/21 06:16:27;;;;;;;13.80;6.40;;;1.20;99.90;;;;;;5098147;28;20213;-57
2021/12/21 06:26:51;;;;;;;14.03;6.23;;;1.20;99.90;;;;;;5097753;27;20201;-57
2021/12/21 06:29:18;;;;;;;12.07;7.67;;;1.30;99.90;;;;;;5098678;27;20194;-56
2021/12/21 06:31:45;;;;;;;15.47;6.83;;;1.20;99.90;;;;;;5096239;27;20561;-55
2021/12/21 06:34:12;;;;;;;16.47;6.47;;;1.20;99.90;;;;;;5098371;28;20198;-56
2021/12/21 06:36:39;;;;;;;10.97;7.07;;;1.10;99.90;;;;;;5110864;27;20242;-55
2021/12/21 06:39:06;;;;;;;10.03;5.57;;;1.20;99.90;;;;;;5099995;28;20208;-56
2021/12/21 06:41:35;;;;;;;11.97;6.97;;;1.20;99.90;;;;;;5096924;27;21287;-54
2021/12/21 06:44:04;;;;;;;12.73;6.90;;;1.20;99.90;;;;;;5101666;27;20190;-55
2021/12/21 06:52:02;;;;;;;16.57;7.37;;;1.10;99.90;;;;;;5096910;28;20209;-53
2021/12/21 06:54:30;;;;;;;13.30;6.73;;;1.10;99.90;;;;;;5098509;28;20212;-54
2021/12/21 06:56:57;;;;;;;14.13;6.30;;;1.00;99.90;;;;;;5100917;27;20242;-56
2021/12/21 06:59:24;;;;;;;16.30;7.17;;;1.00;99.90;;;;;;5098455;28;20262;-56
2021/12/21 07:01:51;;;;;;;11.43;6.20;;;1.10;99.90;;;;;;5094935;28;20202;-55
2021/12/21 07:04:18;;;;;;;17.20;6.40;;;1.00;99.90;;;;;;5097452;28;20275;-54
2021/12/21 07:06:46;;;;;;;19.40;6.70;;;1.10;99.90;;;;;;5099160;28;20193;-55
2021/12/21 07:19:39;;;;;;;11.10;6.50;;;1.20;99.90;;;;;;5096928;28;20203;-56
2021/12/21 07:22:06;;;;;;;16.23;7.17;;;1.10;99.90;;;;;;5098178;27;20205;-57
2021/12/21 07:24:34;;;;;;;12.37;6.53;;;1.10;99.90;;;;;;5099518;27;20198;-53
2021/12/21 07:27:01;;;;;;;15.40;7.30;;;1.10;99.90;;;;;;5096430;28;22415;-56
2021/12/21 07:29:28;;;;;;;15.00;7.20;;;1.20;99.90;;;;;;5097205;28;20196;-56
2021/12/21 07:31:55;;;;;;;13.33;7.13;;;1.20;99.90;;;;;;5100259;28;20227;-54
2021/12/21 07:34:22;;;;;;;19.83;7.43;;;1.10;99.90;;;;;;5097989;27;20613;-55
2021/12/21 07:36:49;;;;;;;15.17;7.10;;;1.20;99.90;;;;;;5096847;28;20657;-56
2021/12/21 07:39:18;;;;;;;15.87;6.70;;;1.20;99.90;;;;;;5094867;28;20205;-56
2021/12/21 07:42:04;;;;;;;14.50;6.93;;;1.20;99.90;;;;;;5097797;28;20252;-54
2021/12/21 07:44:31;;;;;;;9.80;6.53;;;1.20;99.90;;;;;;5110325;27;20665;-57
2021/12/21 07:46:58;;;;;;;15.87;6.93;;;1.20;99.90;;;;;;5096209;28;20678;-56
2021/12/21 07:49:25;;;;;;;13.60;6.97;;;1.10;99.90;;;;;;5101039;28;20190;-56
2021/12/21 07:51:52;;;;;;;11.77;6.97;;;1.10;99.90;;;;;;5099699;28;20217;-55
2021/12/21 07:54:22;;;;;;;16.70;6.73;;;1.00;99.90;;;;;;5096279;28;20202;-56
2021/12/21 07:56:49;;;;;;;13.23;6.23;;;1.10;99.90;;;;;;5096459;28;20221;-54
2021/12/21 07:59:16;;;;;;;14.83;7.37;;;1.20;99.90;;;;;;5095963;27;20637;-53
2021/12/21 08:01:43;;;;;;;13.10;7.23;;;1.20;99.90;;;;;;5097728;28;20266;-56
2021/12/21 08:04:11;;;;;;;12.83;6.93;;;1.20;99.90;;;;;;5093520;28;20197;-55
2021/12/21 08:06:39;;;;;;;14.37;6.50;;;1.10;99.90;;;;;;5095927;28;20692;-56
2021/12/21 08:09:06;;;;;;;12.73;6.67;;;1.00;99.90;;;;;;5098118;28;20270;-55
2021/12/21 08:12:17;;;;;;;14.60;7.17;;;1.00;99.90;;;;;;5097145;28;20202;-53
2021/12/21 08:14:23;;;;;;;13.93;8.07;;;1.10;99.90;;;;;;5087332;28;20238;-55
2021/12/21 08:16:50;;;;;;;15.07;7.43;;;1.20;99.90;;;;;;5087179;28;20692;-56
2021/12/21 08:19:17;;;;;;;20.37;7.80;;;1.20;99.90;;;;;;5093593;28;20196;-53
2021/12/21 08:21:45;;;;;;;11.30;6.83;;;1.30;99.90;;;;;;5090375;28;20863;-55
2021/12/21 08:24:12;;;;;;;18.63;7.07;;;1.40;99.90;;;;;;5094914;28;20239;-54
2021/12/21 08:26:39;;;;;;;11.90;7.03;;;1.40;99.90;;;;;;5097175;28;20215;-55
2021/12/21 08:29:06;;;;;;;14.07;7.17;;;1.40;99.90;;;;;;5088473;28;21246;-55
2021/12/21 08:31:33;;;;;;;13.90;7.27;;;1.60;99.90;;;;;;5091210;28;20232;-55
2021/12/21 08:34:00;;;;;;;14.63;6.90;;;1.70;99.90;;;;;;5092758;27;20620;-56
2021/12/21 08:36:28;;;;;;;15.47;7.57;;;1.80;99.90;;;;;;5095926;28;20395;-53
2021/12/21 08:38:55;;;;;;;14.17;7.07;;;1.80;99.90;;;;;;5094461;28;20546;-52
2021/12/21 08:41:26;;;;;;;15.20;7.57;;;1.90;99.90;;;;;;5093320;28;20254;-53
2021/12/21 08:43:57;;;;;;;11.77;6.67;;;1.90;99.90;;;;;;5093724;28;20195;-56
2021/12/21 08:46:24;;;;;;;16.83;7.67;;;2.00;99.90;;;;;;5091943;28;20649;-55
2021/12/21 08:48:50;;;;;;;18.07;7.40;;;2.00;99.90;;;;;;5094384;28;20238;-54
2021/12/21 08:51:17;;;;;;;15.73;7.40;;;2.10;99.90;;;;;;5094091;28;20251;-55
2021/12/21 08:53:44;;;;;;;17.80;7.20;;;2.30;99.90;;;;;;5092749;28;20212;-54
2021/12/21 08:56:11;;;;;;;13.70;7.10;;;2.50;99.90;;;;;;5090414;28;20301;-55
2021/12/21 08:58:38;;;;;;;16.73;7.10;;;2.60;99.90;;;;;;5090382;28;20730;-61
2021/12/21 09:01:05;;;;;;;12.63;7.33;;;2.50;99.90;;;;;;5095881;28;20246;-55
2021/12/21 09:03:33;;;;;;;12.17;7.63;;;2.50;99.90;;;;;;5093491;28;20270;-54
2021/12/21 09:06:01;;;;;;;11.53;6.77;;;2.40;99.90;;;;;;5092071;28;20194;-54
2021/12/21 09:08:28;;;;;;;13.73;6.67;;;2.40;99.90;;;;;;5094560;28;20804;-54
2021/12/21 09:11:02;;;;;;;13.80;7.90;;;2.60;99.90;;;;;;5093004;28;20282;-56
2021/12/21 09:13:30;;;;;;;12.30;7.50;;;2.80;99.90;;;;;;5094618;28;20273;-55
2021/12/21 09:15:57;;;;;;;14.60;7.90;;;3.00;99.90;;;;;;5097531;28;20214;-55
2021/12/21 09:18:25;;;;;;;14.20;7.37;;;3.10;99.90;;;;;;5089651;28;20199;-55
2021/12/21 09:20:52;;;;;;;13.17;7.77;;;3.10;99.90;;;;;;5094404;28;20197;-55
2021/12/21 09:23:19;;;;;;;14.37;7.47;;;3.00;99.90;;;;;;5098602;28;22870;-54
2021/12/21 09:25:46;;;;;;;16.00;8.90;;;3.30;99.90;;;;;;5087899;28;20540;-58
2021/12/21 09:28:13;;;;;;;15.03;8.53;;;3.30;99.90;;;;;;5085354;28;20198;-57
2021/12/21 09:30:40;;;;;;;12.73;7.37;;;3.30;99.90;;;;;;5089951;28;21428;-58
2021/12/21 09:33:06;;;;;;;16.50;7.83;;;3.30;99.90;;;;;;5089705;28;20285;-56
2021/12/21 09:35:33;;;;;;;16.67;7.40;;;3.20;99.90;;;;;;5094415;28;20309;-55
2021/12/21 09:38:00;;;;;;;13.23;8.07;;;3.00;99.90;;;;;;5094926;27;20732;-57
2021/12/21 09:40:29;;;;;;;13.53;7.53;;;2.90;99.90;;;;;;5093742;27;20306;-56
2021/12/21 09:42:58;;;;;;;14.67;7.83;;;3.00;99.90;;;;;;5107649;27;20708;-57
2021/12/21 09:45:25;;;;;;;13.20;8.10;;;3.00;99.90;;;;;;5092704;27;20222;-56
2021/12/21 09:47:52;;;;;;;18.87;8.63;;;2.80;99.90;;;;;;5094601;28;20723;-56
2021/12/21 09:50:21;;;;;;;14.63;8.57;;;2.80;99.90;;;;;;5095129;27;20537;-57
2021/12/21 09:52:48;;;;;;;13.23;7.97;;;3.00;99.90;;;;;;5099165;28;20251;-54
2021/12/21 09:55:18;;;;;;;10.20;6.90;;;3.20;99.90;;;;;;5098559;28;20230;-56
2021/12/21 09:57:47;;;;;;;15.60;8.10;;;3.10;99.90;;;;;;5096045;27;20201;-56
2021/12/21 10:00:35;;;;;;;14.80;8.70;;;3.20;99.90;;;;;;5093187;27;20318;-56
2021/12/21 10:03:05;;;;;;;14.70;7.80;;;4.00;99.90;;;;;;5086337;27;20664;-56
2021/12/21 10:05:35;;;;;;;18.03;8.50;;;4.40;99.90;;;;;;5095088;28;20205;-57
2021/12/21 10:08:10;;;;;;;16.98;9.70;;;4.30;99.90;;;;;;5092833;28;21327;-53
2021/12/21 10:10:40;;;;;;;16.87;8.70;;;4.50;99.90;;;;;;5096903;28;20634;-52
2021/12/21 10:13:12;;;;;;;20.13;8.30;;;5.00;99.90;;;;;;5097974;28;20297;-56
2021/12/21 10:15:45;;;;;;;12.80;8.13;;;5.30;99.90;;;;;;5097823;28;20283;-55
2021/12/21 10:18:13;;;;;;;11.03;7.27;;;5.60;99.90;;;;;;5098598;28;20547;-57
2021/12/21 10:20:44;;;;;;;13.90;6.97;;;5.70;99.90;;;;;;5095641;28;20746;-55
2021/12/21 10:23:20;;;;;;;17.17;8.17;;;5.70;99.90;;;;;;5095539;28;20216;-55
2021/12/21 10:25:50;;;;;;;15.53;8.27;;;5.70;99.90;;;;;;5093551;27;20194;-54
2021/12/21 10:28:31;;;;;;;13.10;7.30;;;5.70;99.90;;;;;;5110126;27;20201;-53
2021/12/21 10:31:00;;;;;;;16.23;7.37;;;5.70;99.90;;;;;;5096253;28;20685;-63
2021/12/21 10:33:27;;;;;;;13.07;7.03;;;5.80;99.90;;;;;;5097030;28;20213;-59
2021/12/21 10:35:59;;;;;;;13.93;6.90;;;5.70;99.90;;;;;;5096967;28;20217;-57
2021/12/21 10:38:52;;;;;;;10.83;6.93;;;5.50;99.90;;;;;;5094439;28;20654;-55
2021/12/21 10:41:20;;;;;;;12.07;6.93;;;5.50;99.90;;;;;;5092913;28;20262;-55
2021/12/21 10:43:57;;;;;;;15.60;7.43;;;5.40;99.90;;;;;;5095638;28;20203;-54
2021/12/21 10:46:27;;;;;;;16.00;8.03;;;5.50;99.90;;;;;;5095219;28;20657;-53
2021/12/21 10:49:17;;;;;;;13.13;7.00;;;5.60;99.90;;;;;;5094854;27;20786;-54
2021/12/21 10:52:05;;;;;;;15.70;6.77;;;5.80;99.90;;;;;;5095067;28;20629;-54
2021/12/21 10:54:35;;;;;;;12.47;6.93;;;5.90;99.90;;;;;;5097806;28;20199;-55
2021/12/21 10:57:07;;;;;;;15.67;7.23;;;5.70;99.90;;;;;;5093752;28;20221;-55
2021/12/21 10:59:36;;;;;;;10.27;5.97;;;5.80;99.90;;;;;;5090838;27;20199;-54
2021/12/21 11:02:17;;;;;;;15.80;7.13;;;5.90;99.90;;;;;;5092366;28;20199;-55
2021/12/21 11:04:47;;;;;;;12.90;6.90;;;6.00;99.90;;;;;;5094316;28;20206;-56
2021/12/21 11:08:07;;;;;;;11.73;7.97;;;5.80;99.90;;;;;;5095388;28;20734;-54
2021/12/21 11:10:19;;;;;;;12.23;6.90;;;6.00;99.90;;;;;;5082144;28;20253;-54
2021/12/21 11:13:09;;;;;;;9.77;6.47;;;6.20;99.90;;;;;;5095149;28;20200;-53
2021/12/21 11:15:52;;;;;;;16.40;7.27;;;6.00;99.90;;;;;;5095677;28;20245;-54
2021/12/21 11:18:21;;;;;;;9.50;6.10;;;6.10;99.90;;;;;;5091414;28;20554;-56
2021/12/21 11:20:53;;;;;;;11.23;6.03;;;6.00;99.90;;;;;;5088757;28;20615;-60
2021/12/21 11:23:22;;;;;;;12.73;6.77;;;5.80;99.90;;;;;;5094467;28;20198;-55
2021/12/21 11:25:53;;;;;;;17.70;6.90;;;5.90;99.90;;;;;;5094856;27;20556;-56
2021/12/21 11:28:25;;;;;;;11.60;6.80;;;6.00;99.90;;;;;;5089156;28;20402;-56
2021/12/21 11:30:57;;;;;;;13.77;7.57;;;6.00;99.90;;;;;;5094523;28;20300;-53
2021/12/21 11:33:26;;;;;;;14.17;6.30;;;6.10;99.90;;;;;;5093702;28;20189;-56
2021/12/21 11:38:41;;;;;;;12.33;6.97;;;6.20;99.90;;;;;;5088272;28;20300;-56
2021/12/21 11:41:09;;;;;;;11.17;6.33;;;6.40;99.90;;;;;;5089654;27;20558;-54
2021/12/21 11:43:46;;;;;;;8.97;6.10;;;6.20;99.90;;;;;;5092466;28;20218;-56
2021/12/21 11:46:16;;;;;;;10.83;6.43;;;6.50;99.90;;;;;;5097132;28;20574;-54
2021/12/21 11:49:11;;;;;;;8.60;6.17;;;6.70;99.90;;;;;;5090773;28;20229;-53
2021/12/21 11:51:38;;;;;;;12.13;6.27;;;6.90;99.90;;;;;;5096017;28;20289;-56
2021/12/21 11:54:19;;;;;;;10.07;6.30;;;7.10;99.90;;;;;;5094841;28;20728;-58
2021/12/21 11:56:46;;;;;;;12.33;6.47;;;7.20;99.90;;;;;;5095022;28;20223;-55
2021/12/21 11:59:21;;;;;;;7.97;5.70;;;7.50;99.90;;;;;;5093228;28;20280;-53
2021/12/21 12:01:48;;;;;;;9.30;6.03;;;7.80;99.90;;;;;;5097012;28;20287;-56
2021/12/21 12:04:16;;;;;;;9.30;5.90;;;7.90;99.90;;;;;;5094073;28;20715;-54
2021/12/21 12:06:49;;;;;;;11.63;6.27;;;7.80;99.90;;;;;;5092016;28;20260;-53
2021/12/21 12:09:24;;;;;;;10.57;5.77;;;7.90;99.90;;;;;;5091021;28;20197;-56
2021/12/21 12:11:51;;;;;;;8.60;5.40;;;8.00;99.90;;;;;;5091027;27;20303;-54
2021/12/21 12:14:22;;;;;;;8.57;5.07;;;7.60;99.90;;;;;;5093188;28;20533;-52
2021/12/21 12:16:50;;;;;;;8.20;5.60;;;7.30;99.90;;;;;;5092605;28;21220;-55
2021/12/21 12:19:20;;;;;;;13.07;5.27;;;7.40;99.90;;;;;;5091530;28;20737;-54
2021/12/21 12:21:59;;;;;;;10.43;5.10;;;7.60;99.90;;;;;;5094144;28;20758;-54
2021/12/21 12:24:34;;;;;;;9.53;5.47;;;7.40;99.90;;;;;;5092552;28;20265;-55
2021/12/21 12:27:15;;;;;;;8.67;5.67;;;7.40;99.90;;;;;;5091104;28;20619;-54
2021/12/21 12:30:16;;;;;;;11.33;5.63;;;7.50;99.90;;;;;;5092114;28;20470;-54
2021/12/21 12:33:02;;;;;;;9.83;6.43;;;7.70;99.90;;;;;;5063134;28;20233;-55
2021/12/21 12:35:35;;;;;;;8.57;5.97;;;7.90;99.90;;;;;;5088588;28;20204;-53
2021/12/21 12:38:17;;;;;;;11.00;6.43;;;8.10;99.90;;;;;;5093445;28;20214;-53
2021/12/21 12:40:47;;;;;;;10.87;6.77;;;8.20;99.90;;;;;;5092793;28;20285;-55
2021/12/21 12:43:24;;;;;;;15.53;5.67;;;8.70;99.90;;;;;;5090326;28;20626;-54
2021/12/21 12:46:03;;;;;;;11.20;6.30;;;9.00;99.90;;;;;;5091299;28;20223;-54
2021/12/21 12:48:41;;;;;;;12.17;6.10;;;9.00;99.90;;;;;;5090451;28;20203;-53
2021/12/21 12:51:22;;;;;;;9.50;5.80;;;9.20;99.90;;;;;;5090760;28;20221;-55
2021/12/21 12:53:49;;;;;;;11.03;6.00;;;9.10;99.90;;;;;;5088445;28;20206;-53
2021/12/21 12:56:19;;;;;;;9.77;6.23;;;8.90;99.90;;;;;;5092520;28;20217;-53
2021/12/21 12:59:04;;;;;;;9.53;5.43;;;9.00;99.90;;;;;;5094816;28;20253;-53
2021/12/21 13:01:37;;;;;;;9.37;5.00;;;9.00;99.90;;;;;;5090826;28;20238;-53
2021/12/21 13:04:09;;;;;;;7.87;5.77;;;8.60;99.90;;;;;;5090854;28;20724;-54
2021/12/21 13:06:39;;;;;;;9.97;5.20;;;8.20;99.90;;;;;;5091475;28;22135;-60
2021/12/21 13:09:15;;;;;;;10.93;5.53;;;8.10;99.90;;;;;;5093970;28;20257;-54
2021/12/21 13:11:42;;;;;;;8.23;5.20;;;8.20;99.90;;;;;;5096617;28;20201;-53
2021/12/21 13:14:12;;;;;;;6.80;5.00;;;8.10;99.90;;;;;;5095038;28;20204;-54
2021/12/21 13:16:40;;;;;;;7.23;4.87;;;7.90;99.90;;;;;;5098968;28;20276;-53
2021/12/21 13:19:10;;;;;;;12.40;5.50;;;7.70;99.90;;;;;;5098166;28;20270;-53
2021/12/21 13:21:50;;;;;;;8.73;4.77;;;7.80;99.90;;;;;;5093869;28;20239;-55
2021/12/21 13:24:20;;;;;;;9.33;5.10;;;7.70;99.90;;;;;;5097857;28;20235;-54
2021/12/21 13:26:54;;;;;;;10.83;5.70;;;7.80;99.90;;;;;;5093269;28;20216;-54
2021/12/21 13:29:31;;;;;;;7.50;4.90;;;7.90;99.90;;;;;;5095028;27;20510;-55
2021/12/21 13:32:00;;;;;;;10.40;5.33;;;7.80;99.90;;;;;;5084632;27;20228;-54
2021/12/21 13:34:28;;;;;;;11.80;5.73;;;7.80;99.90;;;;;;5098788;28;20205;-55
2021/12/21 13:36:58;;;;;;;7.93;4.83;;;7.80;99.90;;;;;;5094134;28;20301;-55
2021/12/21 13:39:28;;;;;;;10.53;5.57;;;7.50;99.90;;;;;;5099019;28;20293;-56
2021/12/21 13:41:54;;;;;;;10.07;5.57;;;7.80;99.90;;;;;;5095291;27;20944;-54
2021/12/21 13:44:25;;;;;;;8.17;4.43;;;7.90;99.90;;;;;;5096766;28;20201;-53
2021/12/21 13:46:54;;;;;;;9.33;4.93;;;8.10;99.90;;;;;;5091901;28;20297;-54
2021/12/21 13:50:04;;;;;;;9.23;5.27;;;8.00;99.90;;;;;;5098352;28;20212;-54
2021/12/21 13:52:37;;;;;;;9.67;5.07;;;7.90;99.90;;;;;;5093439;28;20468;-55
2021/12/21 13:55:30;;;;;;;9.20;4.97;;;7.70;99.90;;;;;;5099525;27;20299;-54
2021/12/21 13:57:59;;;;;;;10.60;6.07;;;7.60;99.90;;;;;;5098908;27;20227;-54
2021/12/21 14:00:34;;;;;;;9.63;5.77;;;7.60;99.90;;;;;;5097781;28;20775;-56
2021/12/21 14:03:16;;;;;;;9.97;5.23;;;7.70;99.90;;;;;;5098746;28;20296;-55
2021/12/21 14:05:48;;;;;;;8.63;4.57;;;7.60;99.90;;;;;;5094124;28;20208;-55
2021/12/21 14:08:17;;;;;;;8.83;4.90;;;7.50;99.90;;;;;;5094780;28;20278;-55
2021/12/21 14:10:49;;;;;;;10.80;5.57;;;7.50;99.90;;;;;;5093529;28;20293;-54